Briggs, Texas
Current Conditions -  °F | °C
As of 10:55 AM on Friday 28 Nov 2014 (Local Time) from KILE Reporting Station
Broken Clouds Broken Clouds  
Wind Chill: 61°   Ceiling: 1400
Heat Index: 61°   Visibility: 10mi
Dew Point: 48°   Wind: 18mph
Humidity: 63%   Direction: 190°S
Pressure: 30.25"   Gusts: 28mph
Location:  30.89°N, 97.93°W
Report Text: KILE 281655Z AUTO 19016G24KT 10SM BKN014 16/09 A3025 RMK AO1
Loading
Personal Weather Stations






























Interactive Weather Map New forecast layout! Learn more

10-Day Weather Forecast

Advertisements
Track Severe Weather on mobile